Monday, May 30, 2016
12:38 UTC
  |  Log In   |  Register Free
Airport Search:

Firelands Community Hospital Nr 2 Airport
(OI87)

Firelands Community Hospital Nr 2 Airport Diagram
No Airport Diagram Available

FAA data valid effective Mar 31 2016 - May 26 2016 (unless otherwise noted).

 
 
 
 
 
 
 
 
 
 
 
 
 
 
Current Aviation Weather for OI87

Weather Summary


Current weather conditions are not available for OI87 - The nearest NOAA weather station is at PCW, (8.3 nm NW from OI87)

The most recent METAR observation for OI87 was updated at: 12:53 UTC
METAR for OI87 is not available. Closest METAR is for KLPR 24.8 nm NW
KLPR  (24.8 nm NW)   (most recent observation was updated at 30:11 UTC)
301153Z AUTO 26003KT 10SM CLR 19/16 A3002 RMK AO2 SLP161 70014 T01940156 10194 20156 51006 TSNO $

TAF for OI87 is not available.
GlobalAir.com is loading additional information.
 Current Weather at LPR
61.0 F° (16.1 C°)

North winds at 0.0 mph
Pressure:
30.02 in
Humidity:
90%
Wind:
North at 0.0 mph
Dew Point:
57.9 F° (14.4 C°)
Visibility:
8.00 mi
OI87 NOAA Radar




Find All Airport Services Find A Hotel Find A Rental Car Find A Golf Course Find A Restaurant $100 Hamburger



Airport Weather Forecast for OI87

Translated METAR for KPCW (1215 UTC)
METAR:
KPCW 301215Z AUTO 26006KT 10SM CLR 24/17 A3001 RMK AO2 PWINO $
Conditions at:
KPCW (Erie-Ottawa Intl, OH) observed 1215 UTC 30 May 2016
Temperature:
24°C (75.2°F)
Dewpoint:
17°C (62.6°F) [RH = 64.9]
Pressure:
30.01 inches Hg (1016.3 mb)
Winds:
from the W (260 degrees) at 6.9 mph (6 knots: 3.1 m/s)
Visibility:
10 mile(s)
Ceiling:
at least 12,000 feet AGL
Clouds:
Clear below 12,000 feet AGL
Remarks:
site is un-manned
SOME DATA ABOVE MAY BE INACCURATE!!!
"$" is an indication the sensor requires maintenance
site is automated and HAS a precipitation sensor
precipitation identifier sensor not available

Translated TAF for TAF for OI87 is not available. Refer to local area forecast.
FBO's on the Field
FBO Company Facility Photos Services Transportation Aviation Fuel Prices: Prices include tax
Catering Weather Repair Courtesy Rental Type 100LL JetA JetA+ MOGAS 8087
 
Add another FBO Facility Photos Catering Weather Repair Courtesy Rental Type 100LL JetA JetA+ MOGAS 8087
Services Transportation Aviation Fuel Prices: Prices include tax
There are no FBO's currently reporting fuel at OI87. List your FBO now


model-print
model-print
model-print
model-print